createdAt,value
2019-04-26T00:01:18.309Z,67.90
2019-04-26T00:06:23.054Z,68.20
2019-04-26T00:11:48.410Z,68.10
2019-04-26T00:17:05.916Z,68.60
2019-04-26T00:22:10.699Z,68.70
2019-04-26T00:27:16.751Z,68.80
2019-04-26T00:32:21.527Z,69.40
2019-04-26T00:37:25.829Z,69.90
2019-04-26T00:42:31.818Z,69.40
2019-04-26T00:47:36.790Z,70.60
2019-04-26T00:52:42.471Z,71.80
2019-04-26T00:57:46.956Z,70.70
2019-04-26T01:02:54.200Z,73.60
2019-04-26T01:07:58.419Z,72.20
2019-04-26T01:13:02.805Z,80.70
2019-04-26T01:18:07.145Z,79.10
2019-04-26T01:23:13.037Z,74.70
2019-04-26T01:28:25.669Z,74.40
2019-04-26T01:33:31.981Z,75.40
2019-04-26T01:38:36.038Z,74.50
2019-04-26T01:43:49.075Z,74.10
2019-04-26T01:49:03.914Z,74.20
2019-04-26T01:54:10.900Z,74.90
2019-04-26T01:59:17.195Z,74.70
2019-04-26T02:04:23.924Z,76.70
2019-04-26T02:09:28.437Z,76.10
2019-04-26T02:14:33.331Z,76.60
2019-04-26T02:19:37.960Z,75.50
2019-04-26T02:24:45.127Z,76.50
2019-04-26T02:29:49.049Z,77.00
2019-04-26T02:34:53.550Z,77.50
2019-04-26T02:39:58.390Z,78.60
2019-04-26T02:45:29.999Z,78.80
2019-04-26T02:50:44.995Z,79.10
2019-04-26T02:56:31.631Z,79.40
2019-04-26T03:01:37.835Z,78.80
2019-04-26T03:07:01.825Z,78.50
2019-04-26T03:11:54.487Z,78.30
2019-04-26T03:17:24.002Z,78.00
2019-04-26T03:23:01.320Z,77.50
2019-04-26T03:28:36.758Z,77.70
2019-04-26T03:33:54.240Z,77.40
2019-04-26T03:39:15.908Z,78.90
2019-04-26T03:44:30.068Z,77.50
2019-04-26T03:50:07.982Z,77.50
2019-04-26T03:55:50.167Z,78.30
2019-04-26T04:01:00.000Z,77.80
2019-04-26T04:06:07.062Z,77.20
2019-04-26T04:11:14.531Z,78.00
2019-04-26T04:16:42.473Z,78.20
2019-04-26T04:21:56.539Z,76.90
2019-04-26T04:27:23.663Z,77.90
2019-04-26T04:32:47.567Z,77.40
2019-04-26T04:38:08.361Z,78.60
2019-04-26T04:43:33.436Z,79.30
2019-04-26T04:49:21.213Z,77.60
2019-04-26T04:54:37.604Z,76.50
2019-04-26T05:00:01.057Z,75.80
2019-04-26T05:05:34.356Z,76.50
2019-04-26T05:10:51.993Z,76.10
2019-04-26T05:16:25.952Z,76.10
2019-04-26T05:21:55.093Z,76.60
2019-04-26T05:27:44.193Z,77.30
2019-04-26T05:33:00.232Z,81.20
2019-04-26T05:38:18.581Z,77.80
2019-04-26T05:43:49.179Z,78.30
2019-04-26T05:49:35.956Z,76.40
2019-04-26T05:55:07.669Z,77.20
2019-04-26T06:00:36.926Z,77.40
2019-04-26T06:06:23.052Z,76.30
2019-04-26T06:11:36.281Z,77.00
2019-04-26T06:17:21.677Z,78.50
2019-04-26T06:22:57.456Z,77.80
2019-04-26T06:28:24.245Z,78.30
2019-04-26T06:33:35.765Z,77.70
2019-04-26T06:39:05.572Z,78.40
2019-04-26T06:44:14.974Z,77.90
2019-04-26T06:50:15.051Z,77.80
2019-04-26T06:55:39.920Z,79.50
2019-04-26T07:01:08.265Z,79.20
2019-04-26T07:06:15.248Z,78.40
2019-04-26T07:12:21.803Z,77.50
2019-04-26T07:18:05.048Z,78.30
2019-04-26T07:24:16.529Z,79.10
2019-04-26T07:29:57.161Z,78.20
2019-04-26T07:35:16.539Z,78.20
2019-04-26T07:41:07.978Z,79.00
2019-04-26T07:46:52.363Z,78.20
2019-04-26T07:52:48.392Z,80.80
2019-04-26T07:58:45.066Z,81.20
2019-04-26T08:03:59.533Z,81.80
2019-04-26T08:09:10.864Z,83.70
2019-04-26T08:14:23.403Z,84.70
2019-04-26T08:19:30.551Z,83.70
2019-04-26T08:24:37.574Z,84.20
2019-04-26T08:29:45.086Z,86.20
2019-04-26T08:34:57.939Z,86.90
2019-04-26T08:40:07.765Z,85.00
2019-04-26T08:45:28.708Z,84.80
2019-04-26T08:50:53.072Z,85.80
2019-04-26T08:55:58.004Z,87.00
2019-04-26T09:01:22.887Z,87.10
2019-04-26T09:06:36.038Z,86.50
2019-04-26T09:11:41.332Z,86.10
2019-04-26T09:16:50.367Z,86.60
2019-04-26T09:22:13.868Z,86.40
2019-04-26T09:27:36.455Z,86.60
2019-04-26T09:32:54.012Z,85.90
2019-04-26T09:37:58.449Z,86.40
2019-04-26T09:43:15.240Z,86.30
2019-04-26T09:48:26.600Z,84.70
2019-04-26T09:53:31.626Z,85.10
2019-04-26T09:58:37.210Z,83.80
2019-04-26T10:03:42.146Z,84.60
2019-04-26T10:08:47.090Z,83.70
2019-04-26T10:14:01.615Z,83.80
2019-04-26T10:19:10.508Z,82.50
2019-04-26T10:24:14.904Z,82.40
2019-04-26T10:29:21.651Z,81.30
2019-04-26T10:34:25.174Z,80.20
2019-04-26T10:39:32.505Z,80.50
2019-04-26T10:44:39.886Z,78.30
2019-04-26T10:49:44.313Z,78.00
2019-04-26T10:54:52.871Z,77.90
2019-04-26T10:59:58.871Z,77.90
2019-04-26T11:05:03.337Z,79.00
2019-04-26T11:10:07.977Z,77.30
2019-04-26T11:15:12.168Z,76.70
2019-04-26T11:20:16.387Z,76.10
2019-04-26T11:25:24.725Z,77.50
2019-04-26T11:30:27.395Z,77.90
2019-04-26T11:35:33.267Z,77.40
2019-04-26T11:40:44.474Z,78.20
2019-04-26T11:46:03.792Z,78.10
2019-04-26T11:51:00.297Z,78.10
2019-04-26T11:56:07.465Z,78.60
2019-04-26T12:01:13.159Z,78.20
2019-04-26T12:06:44.822Z,76.20
2019-04-26T12:12:03.697Z,75.30
2019-04-26T12:16:59.739Z,74.90
2019-04-26T12:22:04.313Z,74.60
2019-04-26T12:27:11.097Z,75.30
2019-04-26T12:32:17.224Z,75.50
2019-04-26T12:37:21.249Z,76.70
2019-04-26T12:42:26.474Z,75.60
2019-04-26T12:48:03.994Z,74.60
2019-04-26T12:53:08.040Z,74.60
2019-04-26T12:58:15.199Z,74.70
2019-04-26T13:03:37.378Z,73.40
2019-04-26T13:08:47.227Z,72.80
2019-04-26T13:14:01.352Z,72.50
2019-04-26T13:19:09.065Z,73.50
2019-04-26T13:24:15.361Z,73.90
2019-04-26T13:29:22.983Z,73.90
2019-04-26T13:34:27.091Z,73.70
2019-04-26T13:39:31.147Z,73.60
2019-04-26T13:44:55.447Z,74.00
2019-04-26T13:50:11.106Z,73.20
2019-04-26T13:55:15.563Z,73.90
2019-04-26T14:00:26.097Z,73.40
2019-04-26T14:05:30.527Z,73.60
2019-04-26T14:10:34.596Z,73.30
2019-04-26T14:15:39.460Z,73.50
2019-04-26T14:20:44.753Z,74.10
2019-04-26T14:26:10.102Z,73.10
2019-04-26T14:31:16.456Z,73.40
2019-04-26T14:36:22.718Z,72.80
2019-04-26T14:41:26.074Z,73.20
2019-04-26T14:46:30.438Z,73.10
2019-04-26T14:51:34.481Z,72.80
2019-04-26T14:56:51.528Z,73.30
2019-04-26T15:02:15.655Z,73.10
2019-04-26T15:07:19.915Z,72.60
2019-04-26T15:12:24.568Z,71.80
2019-04-26T15:17:28.293Z,73.10
2019-04-26T15:22:32.985Z,71.60
2019-04-26T15:27:37.381Z,71.70
2019-04-26T15:32:42.647Z,71.70
2019-04-26T15:37:46.873Z,71.60
2019-04-26T15:43:02.976Z,70.80
2019-04-26T15:48:16.115Z,70.60
2019-04-26T15:53:22.107Z,70.70
2019-04-26T15:58:26.997Z,71.00
2019-04-26T16:03:32.598Z,70.70
2019-04-26T16:08:42.585Z,70.70
2019-04-26T16:13:45.125Z,70.00
2019-04-26T16:18:53.380Z,69.00
2019-04-26T16:23:55.287Z,68.10
2019-04-26T16:29:19.751Z,67.50
2019-04-26T16:34:23.517Z,67.00
2019-04-26T16:39:32.353Z,66.20
2019-04-26T16:44:33.660Z,66.50
2019-04-26T16:49:41.946Z,67.20
2019-04-26T16:54:45.862Z,67.60
2019-04-26T17:00:35.776Z,67.80
2019-04-26T17:04:55.614Z,67.90
2019-04-26T17:10:00.009Z,68.10
2019-04-26T17:15:03.522Z,68.50
2019-04-26T17:20:10.922Z,68.70
2019-04-26T17:25:37.293Z,69.50
2019-04-26T17:30:44.442Z,69.90
2019-04-26T17:35:47.271Z,71.00
2019-04-26T17:40:51.466Z,70.20
2019-04-26T17:45:55.584Z,70.40
2019-04-26T17:50:59.588Z,71.30
2019-04-26T17:56:06.353Z,71.90
2019-04-26T18:01:10.134Z,72.80
2019-04-26T18:06:15.513Z,74.30
2019-04-26T18:11:24.757Z,74.70
2019-04-26T18:16:29.420Z,75.40
2019-04-26T18:22:03.876Z,75.20
2019-04-26T18:27:09.814Z,77.70
2019-04-26T18:32:14.254Z,77.30
2019-04-26T18:37:18.817Z,78.80
2019-04-26T18:42:22.815Z,78.50
2019-04-26T18:47:32.228Z,81.70
2019-04-26T18:52:38.457Z,78.90
2019-04-26T18:57:43.036Z,79.90
2019-04-26T19:02:48.403Z,80.60
2019-04-26T19:07:53.121Z,81.00
2019-04-26T19:13:00.158Z,80.90
2019-04-26T19:18:33.982Z,81.00
2019-04-26T19:23:37.910Z,83.10
2019-04-26T19:28:44.391Z,87.60
2019-04-26T19:33:51.518Z,85.60
2019-04-26T19:38:53.569Z,85.00
2019-04-26T19:43:59.115Z,83.50
2019-04-26T19:49:25.863Z,89.90
2019-04-26T19:54:38.294Z,89.40
2019-04-26T19:59:39.935Z,89.10
2019-04-26T20:04:44.035Z,88.50
2019-04-26T20:09:48.142Z,87.40
2019-04-26T20:14:56.775Z,86.10
2019-04-26T20:19:59.440Z,86.00
2019-04-26T20:25:03.494Z,90.10
2019-04-26T20:30:12.598Z,90.10
2019-04-26T20:35:26.524Z,87.90
2019-04-26T20:40:27.631Z,87.50
2019-04-26T20:45:41.125Z,89.00
2019-04-26T20:50:37.834Z,84.30
2019-04-26T20:55:42.748Z,83.70
2019-04-26T21:00:54.224Z,84.70
2019-04-26T21:05:58.788Z,84.10
2019-04-26T21:11:00.190Z,84.40
2019-04-26T21:16:10.627Z,83.20
2019-04-26T21:21:11.868Z,83.70
2019-04-26T21:26:35.590Z,84.10
2019-04-26T21:31:59.384Z,84.70
2019-04-26T21:37:22.141Z,85.20
2019-04-26T21:42:27.323Z,88.10
2019-04-26T21:47:32.931Z,87.10
2019-04-26T21:52:38.255Z,86.70
2019-04-26T21:57:43.902Z,90.50
2019-04-26T22:02:48.213Z,90.10
2019-04-26T22:07:53.487Z,87.50
2019-04-26T22:13:01.474Z,89.10
2019-04-26T22:18:10.309Z,90.10
2019-04-26T22:23:33.798Z,90.20
2019-04-26T22:28:37.840Z,90.10
2019-04-26T22:33:42.874Z,88.30
2019-04-26T22:38:47.797Z,88.70
2019-04-26T22:44:00.120Z,88.30
2019-04-26T22:49:05.720Z,87.80
2019-04-26T22:54:10.097Z,87.10
2019-04-26T22:59:14.049Z,89.70
2019-04-26T23:04:24.982Z,89.00
2019-04-26T23:09:24.439Z,90.10
2019-04-26T23:14:57.668Z,89.00
2019-04-26T23:20:19.369Z,88.10
2019-04-26T23:25:23.879Z,87.40
2019-04-26T23:30:27.670Z,89.80
